Time;durP1;ratioP1;P1;durP2;ratioP2;P2;SDS_P1;SDS_P2;PMS_P1;PMS_P2;Temp;Humidity;BMP_temperature;BMP_pressure;BME280_temperature;BME280_humidity;BME280_pressure;Samples;Min_cycle;Max_cycle;Signal;HPM_P1;HPM_P2
2021/08/16 00:00:14;;;;;;;7.93;5.40;;;;;;;26.20;94.17;100987.88;4882733;29;20053;-74
2021/08/16 00:02:59;;;;;;;10.52;5.50;;;;;;;26.30;95.44;100988.03;4883678;29;20029;-74
2021/08/16 00:05:45;;;;;;;6.40;5.45;;;;;;;26.33;93.98;100985.94;4880954;29;20515;-74
2021/08/16 00:08:31;;;;;;;11.40;5.22;;;;;;;26.24;89.11;100991.22;4882156;29;20419;-74
2021/08/16 00:11:17;;;;;;;9.02;5.70;;;;;;;26.27;94.89;100989.13;4882617;29;20037;-74
2021/08/16 00:14:03;;;;;;;10.27;5.60;;;;;;;25.97;98.54;100987.97;4882022;29;20056;-74
2021/08/16 00:16:49;;;;;;;9.27;5.80;;;;;;;26.01;99.48;100987.63;4884143;29;20032;-74
2021/08/16 00:19:35;;;;;;;8.25;5.45;;;;;;;25.93;99.11;100981.09;4869136;29;20036;-75
2021/08/16 00:22:20;;;;;;;8.93;5.50;;;;;;;25.74;99.59;100978.09;4882934;29;20029;-74
2021/08/16 00:25:07;;;;;;;7.57;5.78;;;;;;;26.12;96.43;100970.69;4868708;29;20048;-74
2021/08/16 00:27:53;;;;;;;8.35;5.65;;;;;;;26.07;90.52;100978.22;4883466;29;20116;-74
2021/08/16 00:30:38;;;;;;;7.05;4.78;;;;;;;26.39;87.63;100972.06;4882345;29;20045;-74
2021/08/16 00:33:24;;;;;;;9.18;5.50;;;;;;;26.18;85.06;100975.56;4868574;29;20375;-74
2021/08/16 00:36:10;;;;;;;8.70;5.38;;;;;;;26.28;84.20;100979.25;4881753;29;20462;-74
2021/08/16 00:38:56;;;;;;;9.48;5.22;;;;;;;26.42;83.53;100984.38;4882640;29;20047;-74
2021/08/16 00:41:45;;;;;;;6.80;5.10;;;;;;;26.39;85.02;100985.50;4881923;29;20088;-74
2021/08/16 00:44:31;;;;;;;7.20;5.32;;;;;;;26.48;84.42;100982.06;4868311;29;20399;-74
2021/08/16 00:47:17;;;;;;;9.38;5.68;;;;;;;26.61;83.06;100984.69;4881696;29;20119;-74
2021/08/16 00:50:03;;;;;;;9.18;5.85;;;;;;;26.62;83.35;100991.75;4869033;29;20029;-74
2021/08/16 00:52:49;;;;;;;10.30;5.78;;;;;;;26.60;84.48;100980.28;4881957;29;20121;-74
2021/08/16 00:55:36;;;;;;;7.15;5.22;;;;;;;26.56;85.11;100984.16;4868793;29;20380;-74
2021/08/16 00:58:21;;;;;;;8.18;5.20;;;;;;;26.53;86.03;100992.47;4882218;29;20032;-74
2021/08/16 01:01:07;;;;;;;6.32;5.40;;;;;;;26.38;87.72;100989.16;4881459;29;20089;-74
2021/08/16 01:03:53;;;;;;;8.75;5.60;;;;;;;26.08;84.28;100982.63;4881037;29;20111;-74
2021/08/16 01:06:39;;;;;;;6.78;5.10;;;;;;;26.22;83.46;100982.41;4881051;29;20136;-74
2021/08/16 01:09:25;;;;;;;8.85;5.50;;;;;;;26.12;84.33;100978.75;4881001;29;20472;-74
2021/08/16 01:12:11;;;;;;;6.47;5.30;;;;;;;26.43;82.01;100984.28;4867973;29;20033;-74
2021/08/16 01:14:57;;;;;;;10.23;5.80;;;;;;;26.33;81.32;100977.06;4880858;29;20044;-74
2021/08/16 01:17:43;;;;;;;6.13;4.97;;;;;;;26.24;82.06;100970.56;4881286;29;20057;-74
2021/08/16 01:20:29;;;;;;;6.72;5.10;;;;;;;26.26;81.44;100971.31;4882669;29;20222;-74
2021/08/16 01:23:18;;;;;;;10.35;5.22;;;;;;;26.40;80.39;100973.75;4881018;29;20105;-74
2021/08/16 01:26:05;;;;;;;7.30;5.30;;;;;;;26.44;81.05;100977.91;4867563;29;20052;-74
2021/08/16 01:28:50;;;;;;;8.13;5.53;;;;;;;26.14;81.47;100972.25;4868131;29;20119;-75
2021/08/16 01:31:36;;;;;;;8.18;5.43;;;;;;;25.91;81.96;100965.09;4881123;29;20465;-74
2021/08/16 01:34:22;;;;;;;7.00;5.18;;;;;;;26.25;80.14;100966.91;4881236;29;20041;-74
2021/08/16 01:37:08;;;;;;;5.60;4.63;;;;;;;26.39;79.41;100968.50;4880849;29;20033;-75
2021/08/16 01:39:53;;;;;;;7.68;5.30;;;;;;;26.24;80.04;100964.34;4867283;29;20029;-74
2021/08/16 01:42:40;;;;;;;9.10;5.10;;;;;;;26.51;78.31;100957.66;4881112;29;20100;-74
2021/08/16 01:45:25;;;;;;;7.35;5.82;;;;;;;26.48;78.81;100955.19;4868425;29;20057;-74
2021/08/16 01:48:15;;;;;;;8.95;6.07;;;;;;;26.47;81.56;100960.69;4881237;29;20095;-75
2021/08/16 01:51:01;;;;;;;7.47;5.22;;;;;;;26.28;81.79;100966.66;4881915;29;20029;-74
2021/08/16 01:53:47;;;;;;;6.75;5.32;;;;;;;25.83;82.08;100959.44;4880696;29;20411;-74
2021/08/16 01:56:32;;;;;;;8.07;5.43;;;;;;;25.99;82.53;100961.84;4867041;29;20029;-74
2021/08/16 01:59:18;;;;;;;7.13;5.15;;;;;;;26.25;80.16;100964.22;4881260;29;20029;-74
2021/08/16 02:02:04;;;;;;;6.85;5.15;;;;;;;26.42;79.56;100970.94;4881049;29;20033;-74
2021/08/16 02:04:50;;;;;;;6.22;5.45;;;;;;;26.37;79.34;100959.72;4867289;29;20029;-74
2021/08/16 02:07:36;;;;;;;10.75;5.35;;;;;;;26.10;80.92;100968.09;4880121;29;20057;-74
2021/08/16 02:10:21;;;;;;;6.07;4.85;;;;;;;26.10;79.96;100961.88;4880963;29;20109;-74
2021/08/16 02:13:10;;;;;;;7.90;5.03;;;;;;;26.08;80.63;100963.84;4868165;29;20465;-74
2021/08/16 02:15:56;;;;;;;6.47;5.15;;;;;;;26.15;79.86;100965.03;4880600;29;20459;-74
2021/08/16 02:18:42;;;;;;;7.32;4.88;;;;;;;25.95;80.36;100953.16;4880610;29;20032;-75
2021/08/16 02:21:27;;;;;;;6.05;4.80;;;;;;;26.18;79.40;100954.06;4879839;29;20032;-75
2021/08/16 02:24:13;;;;;;;7.13;5.28;;;;;;;26.15;78.82;100960.53;4880021;29;20036;-74
2021/08/16 02:26:59;;;;;;;8.98;5.13;;;;;;;26.35;77.95;100962.53;4879653;29;20025;-74
2021/08/16 02:29:45;;;;;;;8.48;5.13;;;;;;;26.25;79.56;100956.19;4880098;29;20033;-74
2021/08/16 02:32:31;;;;;;;7.30;5.25;;;;;;;25.99;81.88;100960.00;4866834;29;20029;-74
2021/08/16 02:35:16;;;;;;;10.82;5.13;;;;;;;25.84;84.21;100966.53;4866946;29;20044;-74
2021/08/16 02:38:02;;;;;;;9.40;5.78;;;;;;;25.99;84.10;100969.88;4866932;29;20109;-74
2021/08/16 02:40:48;;;;;;;8.32;5.90;;;;;;;25.77;87.57;100965.31;4879865;29;20119;-74
2021/08/16 02:43:34;;;;;;;8.02;5.20;;;;;;;25.77;89.36;100961.75;4879762;29;20036;-74
2021/08/16 02:46:19;;;;;;;7.18;5.63;;;;;;;25.91;87.46;100966.91;4879887;29;20446;-74
2021/08/16 02:49:05;;;;;;;12.15;6.50;;;;;;;25.69;91.25;100966.84;4867133;29;20078;-74
2021/08/16 02:51:51;;;;;;;7.85;6.15;;;;;;;25.93;87.16;100959.59;4880168;29;20097;-74
2021/08/16 02:54:37;;;;;;;7.68;5.85;;;;;;;25.48;93.64;100958.56;4879947;29;20024;-74
2021/08/16 02:57:22;;;;;;;8.10;6.10;;;;;;;25.59;97.20;100961.31;4879506;29;20033;-74
2021/08/16 03:00:08;;;;;;;7.95;5.88;;;;;;;25.63;97.38;100960.13;4881107;29;20051;-74
2021/08/16 03:02:54;;;;;;;11.18;7.70;;;;;;;25.56;98.87;100966.06;4880150;29;20035;-74
2021/08/16 03:05:40;;;;;;;12.07;9.63;;;;;;;25.74;97.73;100960.16;4879545;29;20531;-74
2021/08/16 03:08:26;;;;;;;7.88;6.10;;;;;;;25.74;97.10;100970.91;4879877;29;20056;-74
2021/08/16 03:11:11;;;;;;;11.75;5.90;;;;;;;25.61;100.00;100964.75;4866822;29;20032;-74
2021/08/16 03:13:57;;;;;;;9.68;6.72;;;;;;;25.34;100.00;100971.31;4881570;29;20132;-74
2021/08/16 03:16:43;;;;;;;8.63;6.05;;;;;;;25.32;100.00;100971.41;4880159;29;20025;-73
2021/08/16 03:19:29;;;;;;;8.90;6.00;;;;;;;25.33;100.00;100981.22;4879870;29;20029;-74
2021/08/16 03:22:15;;;;;;;8.25;6.13;;;;;;;25.25;100.00;100977.34;4881198;29;20036;-74
2021/08/16 03:25:00;;;;;;;9.60;6.30;;;;;;;25.26;100.00;100977.22;4879589;29;20033;-74
2021/08/16 03:27:46;;;;;;;7.38;6.28;;;;;;;25.04;100.00;100981.59;4879217;29;20115;-74
2021/08/16 03:30:32;;;;;;;7.93;6.25;;;;;;;25.22;100.00;100981.09;4879901;29;20037;-75
2021/08/16 03:33:18;;;;;;;8.77;6.32;;;;;;;24.77;100.00;100979.09;4879578;29;20028;-74
2021/08/16 03:36:04;;;;;;;8.05;6.68;;;;;;;24.60;100.00;100973.19;4866530;29;20103;-74
2021/08/16 03:38:49;;;;;;;8.90;6.68;;;;;;;24.81;100.00;100983.25;4879999;29;20029;-74
2021/08/16 03:41:35;;;;;;;9.00;6.47;;;;;;;24.81;100.00;100979.72;4869920;29;20029;-74
2021/08/16 03:44:21;;;;;;;8.20;6.65;;;;;;;24.93;100.00;100977.03;4869721;29;20458;-74
2021/08/16 03:47:07;;;;;;;10.88;6.72;;;;;;;24.94;100.00;100981.41;4882705;29;20097;-74
2021/08/16 03:49:54;;;;;;;9.05;6.65;;;;;;;25.05;100.00;100975.25;4882948;29;20703;-74
2021/08/16 03:52:41;;;;;;;11.70;7.10;;;;;;;24.92;100.00;100971.75;4869692;29;20047;-74
2021/08/16 03:55:26;;;;;;;9.40;6.00;;;;;;;24.62;100.00;100976.63;4882745;29;20371;-74
2021/08/16 03:58:12;;;;;;;9.20;6.80;;;;;;;24.53;100.00;100979.94;4882304;29;20056;-75
2021/08/16 04:00:58;;;;;;;8.27;6.07;;;;;;;24.56;100.00;100982.41;4883171;29;20053;-74
2021/08/16 04:03:44;;;;;;;12.35;7.00;;;;;;;24.89;100.00;100966.63;4870554;29;20348;-74
2021/08/16 04:06:30;;;;;;;10.25;6.88;;;;;;;24.68;100.00;100976.22;4882396;29;20359;-74
2021/08/16 04:09:15;;;;;;;9.75;7.10;;;;;;;24.75;100.00;100982.84;4882236;29;20224;-74
2021/08/16 04:12:01;;;;;;;11.75;7.10;;;;;;;24.69;100.00;100972.56;4883434;29;20037;-74
2021/08/16 04:14:47;;;;;;;10.32;6.82;;;;;;;24.64;100.00;100975.59;4882178;29;20029;-74
2021/08/16 04:17:33;;;;;;;11.95;6.75;;;;;;;24.56;100.00;100987.75;4882884;29;20113;-74
2021/08/16 04:20:19;;;;;;;13.55;6.80;;;;;;;24.49;100.00;100990.03;4882031;29;20450;-74
2021/08/16 04:23:04;;;;;;;7.25;5.97;;;;;;;24.22;100.00;100991.94;4883603;29;20403;-74
2021/08/16 04:25:50;;;;;;;7.95;6.60;;;;;;;24.19;100.00;100989.47;4868876;29;20502;-74
2021/08/16 04:28:36;;;;;;;9.55;6.20;;;;;;;24.08;100.00;101005.44;4882497;29;20040;-74
2021/08/16 04:31:22;;;;;;;11.25;6.75;;;;;;;23.87;100.00;101003.31;4881975;29;20037;-74
2021/08/16 04:34:07;;;;;;;12.43;6.60;;;;;;;23.77;100.00;101007.56;4881741;29;20431;-74
2021/08/16 04:36:53;;;;;;;11.27;6.63;;;;;;;23.97;100.00;101004.44;4882040;29;20032;-74
2021/08/16 04:39:39;;;;;;;11.48;6.63;;;;;;;23.82;100.00;101003.63;4881357;29;20044;-74
2021/08/16 04:42:25;;;;;;;11.50;6.55;;;;;;;24.11;100.00;101004.38;4881781;29;20461;-74
2021/08/16 04:45:12;;;;;;;12.25;6.70;;;;;;;24.37;100.00;101009.63;4881310;29;20043;-74
2021/08/16 04:47:57;;;;;;;11.02;6.40;;;;;;;24.45;100.00;101012.63;4869606;29;20120;-74
2021/08/16 04:50:44;;;;;;;10.85;7.30;;;;;;;24.28;100.00;101009.41;4867576;29;20028;-74
2021/08/16 04:53:29;;;;;;;11.07;6.85;;;;;;;24.36;100.00;101001.69;4882412;29;20033;-74
2021/08/16 04:56:15;;;;;;;9.88;6.75;;;;;;;24.63;100.00;101002.47;4881367;29;20033;-74
2021/08/16 04:59:01;;;;;;;16.55;6.07;;;;;;;24.89;100.00;101002.34;4881988;29;20037;-74
2021/08/16 05:01:48;;;;;;;8.00;6.32;;;;;;;25.13;100.00;101002.38;4868579;29;20075;-74
2021/08/16 05:04:34;;;;;;;12.20;6.47;;;;;;;25.49;100.00;101003.25;4881538;29;20112;-74
2021/08/16 05:07:21;;;;;;;11.05;6.78;;;;;;;25.48;100.00;101006.03;4881202;29;20475;-74
2021/08/16 05:10:08;;;;;;;12.18;7.30;;;;;;;25.73;100.00;101012.16;4868744;29;20475;-74
2021/08/16 05:12:58;;;;;;;13.45;6.93;;;;;;;25.65;100.00;101013.69;4869063;29;20431;-74
2021/08/16 05:15:44;;;;;;;11.65;7.20;;;;;;;25.88;100.00;101024.38;4881512;29;20032;-73
2021/08/16 05:18:30;;;;;;;13.10;7.65;;;;;;;25.74;100.00;101021.03;4881889;29;20028;-74
2021/08/16 05:21:17;;;;;;;11.60;7.28;;;;;;;25.66;100.00;101018.06;4867130;29;20044;-74
2021/08/16 05:24:05;;;;;;;13.88;7.47;;;;;;;25.68;100.00;101021.50;4868564;29;20029;-74
2021/08/16 05:26:51;;;;;;;11.63;7.50;;;;;;;26.02;100.00;101021.56;4880645;29;20112;-74
2021/08/16 05:29:37;;;;;;;14.05;7.20;;;;;;;25.73;100.00;101020.19;4880962;29;20378;-74
2021/08/16 05:32:22;;;;;;;11.00;7.05;;;;;;;25.75;100.00;101018.25;4880573;29;20021;-74
2021/08/16 05:35:10;;;;;;;11.50;7.03;;;;;;;25.67;100.00;101017.97;4880830;29;20029;-73
2021/08/16 05:37:57;;;;;;;10.30;6.70;;;;;;;25.59;100.00;101024.91;4868293;29;20124;-74
2021/08/16 05:40:43;;;;;;;15.27;6.72;;;;;;;25.70;100.00;101023.09;4882166;29;20102;-74
2021/08/16 05:43:28;;;;;;;11.45;6.95;;;;;;;25.92;100.00;101016.97;4880569;29;20119;-75
2021/08/16 05:46:14;;;;;;;12.75;6.80;;;;;;;26.11;100.00;101019.97;4880502;29;20067;-74
2021/08/16 05:49:00;;;;;;;21.02;7.55;;;;;;;26.10;100.00;101013.78;4880900;29;20475;-75
2021/08/16 05:51:46;;;;;;;10.35;6.80;;;;;;;26.06;100.00;101023.03;4880331;29;20037;-75
2021/08/16 05:54:31;;;;;;;16.15;7.60;;;;;;;26.27;100.00;101018.69;4880612;29;20043;-75
2021/08/16 05:57:17;;;;;;;16.92;7.07;;;;;;;26.61;100.00;101023.16;4868624;29;20029;-75
2021/08/16 06:00:05;;;;;;;10.80;6.90;;;;;;;26.62;100.00;101018.66;4880528;29;20096;-74
2021/08/16 06:02:51;;;;;;;18.05;7.00;;;;;;;26.73;100.00;101024.88;4879285;29;20044;-74
2021/08/16 06:05:36;;;;;;;13.05;7.25;;;;;;;26.35;100.00;101021.63;4879947;29;20045;-74
2021/08/16 06:08:22;;;;;;;19.63;7.43;;;;;;;26.41;100.00;101031.06;4880092;29;20423;-75
2021/08/16 06:11:08;;;;;;;16.13;7.22;;;;;;;26.56;100.00;101024.50;4880133;29;20455;-74
2021/08/16 06:13:54;;;;;;;16.05;7.60;;;;;;;26.70;100.00;101029.66;4881189;29;20091;-74
2021/08/16 06:16:40;;;;;;;18.08;8.07;;;;;;;27.05;98.77;101023.16;4880181;29;20458;-74
2021/08/16 06:19:26;;;;;;;15.18;7.47;;;;;;;27.26;94.35;101025.97;4880935;29;20036;-74
2021/08/16 06:22:12;;;;;;;13.77;7.80;;;;;;;27.49;93.23;101023.09;4879858;29;20032;-73
2021/08/16 06:24:58;;;;;;;16.05;7.80;;;;;;;27.94;92.66;101023.84;4879504;29;20040;-73
2021/08/16 06:27:46;;;;;;;21.58;8.35;;;;;;;28.03;89.86;101025.75;4879505;29;20052;-73
2021/08/16 06:30:35;;;;;;;14.32;7.65;;;;;;;27.87;91.48;101025.31;4881787;29;20371;-73
2021/08/16 06:33:21;;;;;;;13.52;7.53;;;;;;;28.33;89.14;101025.81;4879965;29;20621;-73
2021/08/16 06:36:09;;;;;;;18.13;7.43;;;;;;;28.49;86.64;101031.59;4880483;29;20419;-72
2021/08/16 06:39:00;;;;;;;14.10;6.53;;;;;;;28.69;82.79;101037.97;4880795;29;20075;-74
2021/08/16 06:41:54;;;;;;;10.48;6.60;;;;;;;28.97;79.14;101027.31;4881638;29;20035;-72
2021/08/16 06:44:40;;;;;;;17.75;6.65;;;;;;;29.05;82.16;101030.22;4881964;29;20041;-73
2021/08/16 06:47:26;;;;;;;9.90;6.50;;;;;;;29.25;78.60;101031.97;4880269;29;20465;-73
2021/08/16 06:50:12;;;;;;;13.13;6.28;;;;;;;29.18;75.86;101032.69;4880492;29;20097;-74
2021/08/16 06:52:58;;;;;;;14.02;6.60;;;;;;;29.42;72.67;101033.16;4879737;29;20100;-74
2021/08/16 06:55:45;;;;;;;9.85;7.00;;;;;;;29.37;73.69;101036.28;4879825;29;20044;-74
2021/08/16 06:58:37;;;;;;;10.10;6.00;;;;;;;29.81;72.65;101037.66;4881080;29;20039;-74
2021/08/16 07:01:27;;;;;;;11.27;7.43;;;;;;;30.12;73.51;101040.06;4867063;29;20431;-74
2021/08/16 07:04:13;;;;;;;19.88;7.78;;;;;;;30.10;79.41;101046.63;4866896;29;20124;-74
2021/08/16 07:06:59;;;;;;;11.20;7.03;;;;;;;29.91;81.00;101036.66;4867009;29;20063;-66
2021/08/16 07:09:45;;;;;;;12.65;7.10;;;;;;;29.92;76.65;101038.38;4881258;29;20040;-65
2021/08/16 07:12:30;;;;;;;6.75;5.30;;;;;;;30.21;67.23;101041.06;4879540;29;20089;-65
2021/08/16 07:15:16;;;;;;;6.38;4.68;;;;;;;30.71;61.59;101042.56;4882307;29;20033;-65
2021/08/16 07:18:03;;;;;;;8.48;5.15;;;;;;;30.86;60.33;101046.50;4883347;29;20025;-67
2021/08/16 07:20:48;;;;;;;14.90;6.72;;;;;;;30.31;71.62;101050.91;4883313;29;20263;-67
2021/08/16 07:23:37;;;;;;;13.60;7.00;;;;;;;30.83;69.84;101047.63;4882595;29;20096;-67
2021/08/16 07:26:23;;;;;;;17.95;7.60;;;;;;;31.21;68.51;101042.06;4882076;29;20072;-67
2021/08/16 07:29:08;;;;;;;10.10;7.00;;;;;;;31.10;69.63;101044.97;4883737;29;20474;-67
2021/08/16 07:31:54;;;;;;;15.48;7.43;;;;;;;30.75;72.46;101047.56;4882247;29;20029;-67
2021/08/16 07:34:40;;;;;;;11.88;6.43;;;;;;;31.04;68.30;101048.28;4883453;29;20100;-67
2021/08/16 07:37:26;;;;;;;12.45;6.40;;;;;;;30.95;67.20;101046.44;4883925;29;20486;-65
2021/08/16 07:40:15;;;;;;;12.38;6.10;;;;;;;31.20;64.21;101045.78;4883856;29;20112;-66
2021/08/16 07:43:01;;;;;;;15.77;6.38;;;;;;;31.73;62.10;101047.78;4884505;29;20104;-67
2021/08/16 07:45:49;;;;;;;11.85;5.90;;;;;;;32.17;60.92;101041.41;4871107;29;20033;-67
2021/08/16 07:48:36;;;;;;;10.10;6.22;;;;;;;32.25;62.33;101046.91;4870496;29;20044;-66
2021/08/16 07:51:21;;;;;;;9.98;6.00;;;;;;;32.21;61.92;101045.50;4870740;29;20037;-66
2021/08/16 07:54:07;;;;;;;9.77;5.93;;;;;;;32.36;60.79;101044.84;4883828;29;20021;-66
2021/08/16 07:56:53;;;;;;;11.88;5.82;;;;;;;32.33;61.27;101047.00;4885326;29;20029;-66
2021/08/16 07:59:39;;;;;;;8.77;5.75;;;;;;;32.12;59.40;101049.16;4884379;29;20029;-65
2021/08/16 08:02:26;;;;;;;10.98;5.57;;;;;;;32.22;57.41;101053.50;4885225;29;20096;-66
2021/08/16 08:05:17;;;;;;;13.25;6.10;;;;;;;32.13;59.93;101050.88;4883442;29;20029;-66
2021/08/16 08:08:03;;;;;;;8.75;5.90;;;;;;;32.72;57.50;101053.72;4883281;29;20374;-66
2021/08/16 08:10:55;;;;;;;9.00;5.55;;;;;;;33.02;52.74;101056.81;4870834;29;20129;-66
2021/08/16 08:13:41;;;;;;;6.70;5.10;;;;;;;33.22;51.55;101052.81;4869287;29;20108;-66
2021/08/16 08:16:26;;;;;;;11.38;5.97;;;;;;;33.81;49.72;101057.28;4882548;29;20033;-65
2021/08/16 08:19:15;;;;;;;9.25;4.80;;;;;;;33.71;45.01;101043.00;4882809;29;20414;-66
2021/08/16 08:22:01;;;;;;;10.70;5.30;;;;;;;33.90;44.22;101039.97;4882087;29;20029;-66
2021/08/16 08:24:46;;;;;;;9.90;6.10;;;;;;;34.27;45.68;101041.19;4882256;29;20029;-66
2021/08/16 08:27:53;;;;;;;9.57;5.15;;;;;;;34.14;45.54;101042.72;4881605;29;20500;-67
2021/08/16 08:30:39;;;;;;;7.00;5.22;;;;;;;34.80;44.26;101043.38;4883203;29;20100;-66
2021/08/16 08:33:25;;;;;;;7.75;5.32;;;;;;;35.10;44.34;101034.41;4868995;29;20035;-67
2021/08/16 08:36:11;;;;;;;9.60;5.38;;;;;;;35.41;41.10;101040.78;4883996;29;20029;-66
2021/08/16 08:39:26;;;;;;;6.15;4.82;;;;;;;35.33;38.63;101035.38;4869836;29;20056;-67
2021/08/16 08:42:13;;;;;;;8.85;4.70;;;;;;;35.46;37.93;101030.19;4870533;29;20033;-65
2021/08/16 08:45:00;;;;;;;5.43;4.90;;;;;;;36.08;36.04;101030.97;4882333;29;20025;-65
2021/08/16 08:47:47;;;;;;;11.05;5.38;;;;;;;35.75;36.51;101024.91;4883656;29;20045;-66
2021/08/16 08:50:33;;;;;;;7.63;5.50;;;;;;;36.13;36.65;101034.84;4883397;29;20040;-66
2021/08/16 08:53:19;;;;;;;7.35;4.95;;;;;;;35.71;36.67;101022.72;4882141;29;20411;-68
2021/08/16 08:56:05;;;;;;;7.18;5.78;;;;;;;36.42;35.97;101031.38;4868403;29;20451;-68
2021/08/16 08:58:53;;;;;;;8.55;5.63;;;;;;;36.61;35.41;101026.22;4882481;29;20047;-67
2021/08/16 09:01:59;;;;;;;6.78;5.30;;;;;;;36.06;34.38;101028.44;4882663;29;20425;-65
2021/08/16 09:04:51;;;;;;;7.45;5.30;;;;;;;36.93;34.02;101036.81;4882988;29;20036;-65
2021/08/16 09:07:39;;;;;;;7.72;5.50;;;;;;;36.79;34.26;101026.72;4844500;29;20383;-66
2021/08/16 09:10:27;;;;;;;7.93;5.30;;;;;;;36.46;34.91;101022.63;4845411;29;20056;-66
2021/08/16 09:13:26;;;;;;;6.82;5.30;;;;;;;36.34;35.30;101013.19;4844733;29;20057;-66
2021/08/16 09:16:21;;;;;;;7.38;4.95;;;;;;;36.40;33.98;101014.34;4831788;29;20037;-67
2021/08/16 09:19:26;;;;;;;6.55;5.78;;;;;;;36.23;34.01;101010.91;4844934;29;20034;-66
2021/08/16 09:22:13;;;;;;;9.50;4.65;;;;;;;36.46;32.93;101003.50;4845211;29;20431;-66
2021/08/16 09:25:10;;;;;;;7.28;5.97;;;;;;;36.58;33.99;101007.47;4844488;29;20056;-67
2021/08/16 09:27:56;;;;;;;6.60;4.93;;;;;;;36.46;34.98;100998.06;4844409;29;20026;-66
2021/08/16 09:30:42;;;;;;;7.35;6.13;;;;;;;36.92;34.19;100996.84;4844061;29;20458;-66
2021/08/16 09:33:28;;;;;;;7.35;5.40;;;;;;;36.22;34.67;100995.56;4844321;29;20048;-66
2021/08/16 09:36:14;;;;;;;9.80;5.97;;;;;;;36.06;35.13;101000.28;4845700;29;20113;-66
2021/08/16 09:39:00;;;;;;;6.35;5.25;;;;;;;35.66;34.46;100995.09;4844394;29;20451;-66
2021/08/16 09:42:04;;;;;;;6.95;5.45;;;;;;;36.15;34.21;100989.09;4845246;29;20429;-68
2021/08/16 09:44:50;;;;;;;7.93;5.60;;;;;;;35.98;33.93;100982.09;4846278;29;20045;-66
2021/08/16 09:47:44;;;;;;;10.50;5.90;;;;;;;36.58;33.13;100987.50;4844513;29;20467;-66
2021/08/16 09:50:38;;;;;;;6.35;4.85;;;;;;;35.60;34.11;100977.63;4843466;29;20065;-66
2021/08/16 09:53:25;;;;;;;8.00;5.07;;;;;;;35.55;34.21;100969.13;4843132;29;20022;-66
2021/08/16 09:56:11;;;;;;;8.73;5.07;;;;;;;35.38;34.30;100963.94;4843143;29;20041;-66
2021/08/16 09:58:57;;;;;;;6.93;4.72;;;;;;;36.29;33.83;100974.69;4843154;29;20045;-65
2021/08/16 10:01:43;;;;;;;8.60;5.30;;;;;;;36.32;33.33;100968.84;4843175;29;20377;-66
2021/08/16 10:04:31;;;;;;;7.05;5.00;;;;;;;35.35;35.55;100958.88;4842915;29;20349;-66
2021/08/16 10:07:22;;;;;;;12.70;5.03;;;;;;;35.71;35.79;100955.34;4860298;29;20450;-66
2021/08/16 10:10:09;;;;;;;6.10;4.80;;;;;;;35.90;34.97;100952.16;4862748;29;20374;-66
2021/08/16 10:12:55;;;;;;;8.85;5.30;;;;;;;35.90;35.68;100952.16;4862698;29;20029;-66
2021/08/16 10:15:46;;;;;;;7.40;5.40;;;;;;;36.27;35.59;100954.91;4862562;29;20097;-66
2021/08/16 10:18:34;;;;;;;8.85;6.07;;;;;;;36.45;35.38;100954.56;4862635;29;20061;-68
2021/08/16 10:21:23;;;;;;;7.22;6.50;;;;;;;35.92;35.42;100952.81;4862731;29;20044;-68
2021/08/16 10:24:23;;;;;;;7.03;5.25;;;;;;;36.21;34.31;100949.31;4862575;29;20045;-66
2021/08/16 10:27:09;;;;;;;7.75;5.55;;;;;;;35.81;34.65;100945.09;4862129;29;20021;-66
2021/08/16 10:30:05;;;;;;;9.27;5.55;;;;;;;36.18;34.14;100945.09;4862814;29;20072;-67
2021/08/16 10:33:01;;;;;;;9.68;5.50;;;;;;;36.08;34.72;100938.19;4862400;29;20029;-65
2021/08/16 10:35:51;;;;;;;7.10;5.05;;;;;;;35.85;34.79;100932.78;4862317;29;20469;-65
2021/08/16 10:38:49;;;;;;;6.82;5.18;;;;;;;36.08;34.15;100932.75;4863352;29;20116;-66
2021/08/16 10:41:44;;;;;;;8.05;5.60;;;;;;;36.09;34.84;100937.16;4863740;29;20105;-66
2021/08/16 10:44:37;;;;;;;8.70;5.07;;;;;;;36.27;34.42;100933.06;4862524;29;20107;-66
2021/08/16 10:47:29;;;;;;;8.27;7.45;;;;;;;36.03;34.71;100924.28;4862641;29;20037;-67
2021/08/16 10:50:20;;;;;;;6.70;6.00;;;;;;;36.20;34.22;100926.63;4866137;29;20037;-67
2021/08/16 10:53:11;;;;;;;8.80;6.80;;;;;;;36.50;33.91;100924.78;4867630;29;20065;-67
2021/08/16 10:55:57;;;;;;;9.18;5.72;;;;;;;36.73;33.31;100925.56;4866812;29;20061;-67
2021/08/16 10:58:44;;;;;;;7.35;5.38;;;;;;;36.79;33.47;100913.88;4867594;29;20037;-67
2021/08/16 11:01:35;;;;;;;7.45;6.00;;;;;;;36.90;33.55;100910.66;4867687;29;20048;-68
2021/08/16 11:04:30;;;;;;;9.35;5.57;;;;;;;36.62;33.48;100913.22;4866982;29;20037;-69
2021/08/16 11:07:22;;;;;;;7.43;5.72;;;;;;;36.39;33.19;100908.91;4884545;29;20088;-68
2021/08/16 11:10:10;;;;;;;7.65;5.57;;;;;;;36.18;33.91;100901.41;4872192;29;20040;-67
2021/08/16 11:12:56;;;;;;;11.98;5.70;;;;;;;36.46;32.97;100894.31;4884583;29;20489;-66
2021/08/16 11:15:48;;;;;;;11.27;6.25;;;;;;;36.51;33.29;100896.47;4883506;29;20102;-68
2021/08/16 11:18:40;;;;;;;9.10;6.55;;;;;;;36.53;33.50;100897.13;4885766;29;20047;-67
2021/08/16 11:25:15;;;;;;;8.82;7.93;;;;;;;37.17;32.24;100882.63;4879318;29;20045;-66
2021/08/16 11:28:07;;;;;;;8.20;6.03;;;;;;;37.01;32.45;100875.50;4884045;29;20044;-68
2021/08/16 11:31:07;;;;;;;6.68;5.82;;;;;;;36.87;32.93;100873.66;4870947;29;20029;-66
2021/08/16 11:34:06;;;;;;;11.32;6.47;;;;;;;36.98;32.72;100873.16;4883660;29;20025;-68
2021/08/16 11:36:52;;;;;;;10.27;6.00;;;;;;;37.42;32.24;100867.53;4883684;29;20044;-68
2021/08/16 11:39:38;;;;;;;7.85;6.03;;;;;;;36.42;32.63;100864.81;4883984;29;20124;-68
2021/08/16 11:42:25;;;;;;;9.25;5.82;;;;;;;36.71;32.62;100859.34;4883519;29;20037;-68
2021/08/16 11:45:17;;;;;;;9.98;5.97;;;;;;;37.41;32.04;100863.94;4870579;29;20033;-67
2021/08/16 11:48:03;;;;;;;22.25;6.80;;;;;;;37.32;31.81;100865.13;4885191;29;20047;-66
2021/08/16 11:51:03;;;;;;;7.13;5.40;;;;;;;38.06;31.41;100863.69;4870001;29;20120;-66
2021/08/16 11:53:50;;;;;;;9.82;5.35;;;;;;;37.52;32.77;100854.38;4884973;29;20366;-70
2021/08/16 11:56:49;;;;;;;9.18;6.18;;;;;;;37.42;32.00;100846.53;4884370;29;20071;-69
2021/08/16 11:59:42;;;;;;;6.93;5.45;;;;;;;38.43;31.63;100844.97;4884885;29;20074;-68
2021/08/16 12:02:33;;;;;;;6.75;6.03;;;;;;;37.44;31.39;100832.66;4870667;29;20029;-68
2021/08/16 12:05:19;;;;;;;7.65;6.00;;;;;;;37.59;31.33;100834.28;4884374;29;20056;-70
2021/08/16 12:08:12;;;;;;;9.10;6.18;;;;;;;38.40;30.94;100839.03;4883283;29;20385;-69
2021/08/16 12:10:59;;;;;;;5.93;5.40;;;;;;;38.26;30.61;100834.56;4868862;29;20396;-67
2021/08/16 12:13:56;;;;;;;8.05;5.78;;;;;;;37.68;31.59;100832.25;4884490;29;20072;-67
2021/08/16 12:16:41;;;;;;;6.82;5.38;;;;;;;37.44;31.08;100833.47;4884515;29;20025;-66
2021/08/16 12:19:28;;;;;;;9.65;6.20;;;;;;;37.81;30.99;100833.19;4882644;29;20036;-66
2021/08/16 12:22:14;;;;;;;6.10;5.50;;;;;;;37.37;31.83;100820.81;4869332;29;20439;-67
2021/08/16 12:25:07;;;;;;;7.35;5.22;;;;;;;37.65;31.87;100825.25;4882201;29;20043;-68
2021/08/16 12:28:00;;;;;;;6.30;5.50;;;;;;;37.84;30.79;100820.97;4883740;29;20029;-66
2021/08/16 12:30:47;;;;;;;9.20;5.65;;;;;;;37.84;31.38;100819.09;4870479;29;20044;-66
2021/08/16 12:33:32;;;;;;;6.97;5.47;;;;;;;38.04;30.97;100814.63;4870657;29;20459;-66
2021/08/16 12:36:23;;;;;;;7.22;5.50;;;;;;;37.59;31.72;100817.88;4881214;29;20028;-67
2021/08/16 12:39:11;;;;;;;8.48;5.25;;;;;;;37.39;32.52;100821.44;4881614;29;20458;-66
2021/08/16 12:42:08;;;;;;;9.07;5.90;;;;;;;37.11;32.87;100810.44;4869014;29;20037;-66
2021/08/16 12:44:56;;;;;;;8.15;5.53;;;;;;;37.55;31.75;100808.34;4882693;29;20363;-66
2021/08/16 12:47:41;;;;;;;7.75;5.95;;;;;;;37.38;32.88;100806.09;4868993;29;20037;-65
2021/08/16 12:50:29;;;;;;;7.25;5.05;;;;;;;37.68;32.29;100805.72;4881388;29;20115;-66
2021/08/16 12:53:15;;;;;;;6.25;5.57;;;;;;;37.34;32.17;100800.16;4869201;29;20037;-66
2021/08/16 12:56:01;;;;;;;10.20;5.20;;;;;;;37.70;31.36;100798.19;4881030;29;20466;-66